createdAt,value
2018-02-14T04:17:25.749Z,87.61
2018-02-14T04:19:51.653Z,87.65
2018-02-14T04:22:17.518Z,87.68
2018-02-14T04:24:43.493Z,87.78
2018-02-14T04:27:09.360Z,87.93
2018-02-14T04:29:35.232Z,87.92
2018-02-14T04:32:01.117Z,87.91
2018-02-14T04:34:27.013Z,87.95
2018-02-14T04:36:52.857Z,87.94
2018-02-14T04:39:18.700Z,87.93
2018-02-14T04:41:44.576Z,87.94
2018-02-14T04:44:10.416Z,87.94
2018-02-14T04:46:36.257Z,88.00
2018-02-14T04:49:02.149Z,87.94
2018-02-14T04:51:27.988Z,88.01
2018-02-14T04:53:53.885Z,87.99
2018-02-14T04:56:19.795Z,87.96
2018-02-14T04:58:45.641Z,88.00
2018-02-14T05:01:11.516Z,88.04
2018-02-14T05:03:37.361Z,88.08
2018-02-14T05:06:03.210Z,88.12
2018-02-14T05:08:29.115Z,88.14
2018-02-14T05:10:54.948Z,88.09
2018-02-14T05:13:20.848Z,88.05
2018-02-14T05:15:46.733Z,88.05
2018-02-14T05:18:12.604Z,88.13
2018-02-14T05:20:38.531Z,88.16
2018-02-14T05:23:04.415Z,88.23
2018-02-14T05:25:30.256Z,88.25
2018-02-14T05:27:56.101Z,88.21
2018-02-14T05:30:22.068Z,88.22
2018-02-14T05:32:48.017Z,88.20
2018-02-14T05:35:13.857Z,88.29
2018-02-14T05:37:39.744Z,88.29
2018-02-14T05:40:05.586Z,88.26
2018-02-14T05:42:31.429Z,88.24
2018-02-14T05:44:57.306Z,88.27
2018-02-14T05:47:23.145Z,88.29
2018-02-14T05:49:48.987Z,88.29
2018-02-14T05:52:14.946Z,88.30
2018-02-14T05:54:40.898Z,88.10
2018-02-14T05:57:06.819Z,88.11
2018-02-14T05:59:32.789Z,88.14
2018-02-14T06:01:58.699Z,88.06
2018-02-14T06:04:24.540Z,88.13
2018-02-14T06:06:50.423Z,88.08
2018-02-14T06:09:16.350Z,88.03
2018-02-14T06:11:42.191Z,88.02
2018-02-14T06:14:08.019Z,87.98
2018-02-14T06:16:33.900Z,88.00
2018-02-14T06:18:59.748Z,88.09
2018-02-14T06:21:25.576Z,88.04
2018-02-14T06:23:51.461Z,88.13
2018-02-14T06:26:17.300Z,88.24
2018-02-14T06:28:43.138Z,88.24
2018-02-14T06:31:09.053Z,88.22
2018-02-14T06:33:34.888Z,88.16
2018-02-14T06:36:00.733Z,88.22
2018-02-14T06:38:26.615Z,88.19
2018-02-14T06:40:52.608Z,88.24
2018-02-14T06:43:18.503Z,88.33
2018-02-14T06:45:44.372Z,88.36
2018-02-14T06:48:10.221Z,88.28
2018-02-14T06:50:36.091Z,88.24
2018-02-14T06:53:01.957Z,88.20
2018-02-14T06:55:27.808Z,88.15
2018-02-14T06:57:53.692Z,88.14
2018-02-14T07:00:19.541Z,88.13
2018-02-14T07:02:45.384Z,88.01
2018-02-14T07:05:11.292Z,87.87
2018-02-14T07:07:37.129Z,87.76
2018-02-14T07:10:03.005Z,87.67
2018-02-14T07:12:28.900Z,87.56
2018-02-14T07:14:54.764Z,87.46
2018-02-14T07:17:20.661Z,87.38
2018-02-14T07:19:46.505Z,87.25
2018-02-14T07:22:12.353Z,87.14
2018-02-14T07:24:38.241Z,87.03
2018-02-14T07:27:04.089Z,86.91
2018-02-14T07:29:30.036Z,86.84
2018-02-14T07:31:55.933Z,86.78
2018-02-14T07:34:21.792Z,86.65
2018-02-14T07:36:47.633Z,86.55
2018-02-14T07:39:13.562Z,86.43
2018-02-14T07:41:39.473Z,86.30
2018-02-14T07:44:05.308Z,86.42
2018-02-14T07:46:31.198Z,86.57
2018-02-14T07:48:57.043Z,86.64
2018-02-14T07:51:22.884Z,86.80
2018-02-14T07:53:48.761Z,86.70
2018-02-14T07:56:14.629Z,86.50
2018-02-14T07:58:40.518Z,86.23
2018-02-14T08:01:06.441Z,85.93
2018-02-14T08:03:32.365Z,85.59
2018-02-14T08:05:58.217Z,84.97
2018-02-14T08:08:24.205Z,84.50
2018-02-14T08:10:50.072Z,84.13
2018-02-14T08:13:15.918Z,83.86
2018-02-14T08:15:41.808Z,83.67
2018-02-14T08:18:07.669Z,83.33
2018-02-14T08:20:33.509Z,83.22
2018-02-14T08:22:59.394Z,82.70
2018-02-14T08:25:25.253Z,82.58
2018-02-14T08:27:51.147Z,82.31
2018-02-14T08:30:16.988Z,81.80
2018-02-14T08:32:42.819Z,81.78
2018-02-14T08:35:08.743Z,81.74
2018-02-14T08:37:34.621Z,81.63
2018-02-14T08:40:00.505Z,81.61
2018-02-14T08:42:26.389Z,81.40
2018-02-14T08:44:52.245Z,81.10
2018-02-14T08:47:18.145Z,80.83
2018-02-14T08:49:43.987Z,80.81
2018-02-14T08:52:09.853Z,79.98
2018-02-14T08:54:35.741Z,79.48
2018-02-14T08:57:01.583Z,79.67
2018-02-14T08:59:27.481Z,79.08
2018-02-14T09:01:53.388Z,78.65
2018-02-14T09:04:19.237Z,78.84
2018-02-14T09:06:45.081Z,78.14
2018-02-14T09:09:10.956Z,77.17
2018-02-14T09:11:36.845Z,76.69
2018-02-14T09:14:02.692Z,76.46
2018-02-14T09:16:28.570Z,75.85
2018-02-14T09:18:54.456Z,74.93
2018-02-14T09:21:20.303Z,73.83
2018-02-14T09:23:46.175Z,72.75
2018-02-14T09:26:12.051Z,72.43
2018-02-14T09:28:37.895Z,72.26
2018-02-14T09:31:03.732Z,72.35
2018-02-14T09:33:29.608Z,71.82
2018-02-14T09:35:55.461Z,70.27
2018-02-14T09:38:21.332Z,68.08
2018-02-14T09:40:47.216Z,65.02
2018-02-14T09:43:13.060Z,62.22
2018-02-14T09:45:38.978Z,59.61
2018-02-14T09:48:04.875Z,57.48
2018-02-14T09:50:30.733Z,55.50
2018-02-14T09:52:56.572Z,53.19
2018-02-14T09:55:22.456Z,51.81
2018-02-14T09:57:48.428Z,50.28
2018-02-14T10:00:14.274Z,47.67
2018-02-14T10:02:40.146Z,46.81
2018-02-14T10:05:06.118Z,45.37
2018-02-14T10:07:31.969Z,44.37
2018-02-14T10:09:57.811Z,43.82
2018-02-14T10:12:23.683Z,43.04
2018-02-14T10:14:49.525Z,41.34
2018-02-14T10:17:15.406Z,40.57
2018-02-14T10:19:41.260Z,39.60
2018-02-14T10:22:07.148Z,39.03
2018-02-14T10:24:32.996Z,37.90
2018-02-14T10:26:58.845Z,37.10
2018-02-14T10:29:24.745Z,35.95
2018-02-14T10:31:50.589Z,35.60
2018-02-14T10:34:16.437Z,34.34
2018-02-14T10:36:42.325Z,33.70
2018-02-14T10:39:08.204Z,33.20
2018-02-14T10:41:34.108Z,32.29
2018-02-14T10:43:59.993Z,32.23
2018-02-14T10:46:25.849Z,31.73
2018-02-14T10:48:51.731Z,31.15
2018-02-14T10:51:17.594Z,31.07
2018-02-14T10:53:43.442Z,31.39
2018-02-14T10:56:09.457Z,32.06
2018-02-14T10:58:35.300Z,33.66
2018-02-14T11:01:01.164Z,35.85
2018-02-14T11:03:33.081Z,38.47
2018-02-14T11:06:05.006Z,40.96
2018-02-14T11:08:30.936Z,43.04
2018-02-14T11:10:56.816Z,44.99
2018-02-14T11:13:22.653Z,45.85
2018-02-14T11:15:48.492Z,46.78
2018-02-14T11:18:14.384Z,48.22
2018-02-14T11:20:40.225Z,49.49
2018-02-14T11:23:06.065Z,50.14
2018-02-14T11:25:31.961Z,50.76
2018-02-14T11:27:57.812Z,51.53
2018-02-14T11:30:23.648Z,52.05
2018-02-14T11:32:49.537Z,52.74
2018-02-14T11:35:15.413Z,52.63
2018-02-14T11:37:41.253Z,52.40
2018-02-14T11:40:07.189Z,52.54
2018-02-14T11:42:33.024Z,52.59
2018-02-14T11:44:58.869Z,52.84
2018-02-14T11:47:24.840Z,52.77
2018-02-14T11:49:50.697Z,52.53
2018-02-14T11:52:16.596Z,52.38
2018-02-14T11:54:42.587Z,52.78
2018-02-14T11:57:08.423Z,51.88
2018-02-14T11:59:34.297Z,51.58
2018-02-14T12:02:00.202Z,51.24
2018-02-14T12:04:26.039Z,51.25
2018-02-14T12:06:52.035Z,50.44
2018-02-14T12:09:18.018Z,49.94
2018-02-14T12:11:43.852Z,49.20
2018-02-14T12:14:09.710Z,48.55
2018-02-14T12:16:35.596Z,47.70
2018-02-14T12:19:01.593Z,47.53
2018-02-14T12:21:27.436Z,47.15
2018-02-14T12:23:53.365Z,46.60
2018-02-14T12:26:19.272Z,45.67
2018-02-14T12:28:45.148Z,44.80
2018-02-14T12:31:11.029Z,44.84
2018-02-14T12:33:36.875Z,44.89
2018-02-14T12:36:02.761Z,44.73
2018-02-14T12:38:28.653Z,44.31
2018-02-14T12:40:54.493Z,45.23
2018-02-14T12:43:20.404Z,44.91
2018-02-14T12:45:46.288Z,43.57
2018-02-14T12:48:12.137Z,43.19
2018-02-14T12:50:37.967Z,43.71
2018-02-14T12:53:03.855Z,44.22
2018-02-14T12:55:29.695Z,44.28
2018-02-14T12:57:55.583Z,44.52
2018-02-14T13:00:21.468Z,44.63
2018-02-14T13:02:47.301Z,44.65
2018-02-14T13:05:13.185Z,44.16
2018-02-14T13:07:39.132Z,44.07
2018-02-14T13:10:04.977Z,43.12
2018-02-14T13:12:30.811Z,43.33
2018-02-14T13:14:56.688Z,43.51
2018-02-14T13:17:22.537Z,43.33
2018-02-14T13:19:48.397Z,42.89
2018-02-14T13:22:14.320Z,43.26
2018-02-14T13:24:40.159Z,43.20
2018-02-14T13:27:06.009Z,43.23
2018-02-14T13:29:31.905Z,43.39
2018-02-14T13:31:57.740Z,44.09
2018-02-14T13:34:23.585Z,44.22
2018-02-14T13:36:49.507Z,43.84
2018-02-14T13:39:15.344Z,43.74
2018-02-14T13:41:41.265Z,43.64
2018-02-14T13:44:07.104Z,43.85
2018-02-14T13:46:32.945Z,43.71
2018-02-14T13:48:58.859Z,43.85
2018-02-14T13:51:24.710Z,43.99
2018-02-14T13:53:50.561Z,44.46
2018-02-14T13:56:16.452Z,44.67
2018-02-14T13:58:42.349Z,44.78
2018-02-14T14:01:08.210Z,44.80
2018-02-14T14:03:34.100Z,44.21
2018-02-14T14:05:59.956Z,44.55
2018-02-14T14:08:25.793Z,44.94
2018-02-14T14:10:51.713Z,45.08
2018-02-14T14:13:17.584Z,45.44
2018-02-14T14:15:43.430Z,45.45
2018-02-14T14:18:09.303Z,45.57
2018-02-14T14:20:35.158Z,45.56
2018-02-14T14:23:01.062Z,45.99
2018-02-14T14:25:26.952Z,46.46
2018-02-14T14:27:52.809Z,47.15
2018-02-14T14:30:18.697Z,47.39
2018-02-14T14:32:44.593Z,47.77
2018-02-14T14:35:10.450Z,48.13
2018-02-14T14:37:36.466Z,48.76
2018-02-14T14:40:02.321Z,49.10
2018-02-14T14:42:28.165Z,49.49
2018-02-14T14:44:54.104Z,49.97
2018-02-14T14:47:19.954Z,50.51
2018-02-14T14:49:45.831Z,51.11
2018-02-14T14:52:11.699Z,51.58
2018-02-14T14:54:37.564Z,51.79
2018-02-14T14:57:03.525Z,52.07
2018-02-14T14:59:29.415Z,52.36
2018-02-14T15:01:55.247Z,52.75
2018-02-14T15:04:21.084Z,53.26
2018-02-14T15:06:46.962Z,53.61
2018-02-14T15:09:12.791Z,53.94
2018-02-14T15:11:38.669Z,53.89
2018-02-14T15:14:04.503Z,54.07
2018-02-14T15:16:30.346Z,53.87
2018-02-14T15:18:56.223Z,53.85
2018-02-14T15:21:22.065Z,53.92
2018-02-14T15:23:47.909Z,54.18
2018-02-14T15:26:13.803Z,54.44
2018-02-14T15:28:39.713Z,54.81
2018-02-14T15:31:05.568Z,55.09
2018-02-14T15:33:31.456Z,55.39
2018-02-14T15:35:57.302Z,55.72
2018-02-14T15:38:23.140Z,56.05
2018-02-14T15:40:49.055Z,56.54
2018-02-14T15:43:14.929Z,57.07
2018-02-14T15:45:40.826Z,57.55
2018-02-14T15:48:06.675Z,57.98
2018-02-14T15:50:32.522Z,58.38
2018-02-14T15:52:58.399Z,58.75
2018-02-14T15:55:24.274Z,59.05
2018-02-14T15:57:50.117Z,59.36
2018-02-14T16:00:16.077Z,59.73
2018-02-14T16:02:41.918Z,60.15
2018-02-14T16:05:07.816Z,60.70
2018-02-14T16:07:33.705Z,61.32
2018-02-14T16:09:59.721Z,61.82
2018-02-14T16:12:25.577Z,62.37
2018-02-14T16:14:51.444Z,63.25
2018-02-14T16:17:17.331Z,64.09
2018-02-14T16:19:43.205Z,64.85
2018-02-14T16:22:09.049Z,65.59
2018-02-14T16:24:34.939Z,66.00
2018-02-14T16:27:00.789Z,66.37
2018-02-14T16:29:26.628Z,66.90
2018-02-14T16:31:52.529Z,67.43
2018-02-14T16:34:18.368Z,68.06
2018-02-14T16:36:44.226Z,68.69
2018-02-14T16:39:10.121Z,69.20
2018-02-14T16:41:36.064Z,69.67
2018-02-14T16:44:01.907Z,70.56
2018-02-14T16:46:27.779Z,70.91
2018-02-14T16:48:53.621Z,71.17
2018-02-14T16:51:19.507Z,71.71
2018-02-14T16:53:45.430Z,72.11
2018-02-14T16:56:11.272Z,73.02
2018-02-14T16:58:37.229Z,73.63
2018-02-14T17:01:03.118Z,74.00
2018-02-14T17:03:28.992Z,74.60
2018-02-14T17:05:54.885Z,74.85
2018-02-14T17:08:21.132Z,75.24
2018-02-14T17:10:46.979Z,75.74
2018-02-14T17:13:12.862Z,75.97
2018-02-14T17:15:38.716Z,76.39
2018-02-14T17:18:04.628Z,76.48
2018-02-14T17:20:30.528Z,76.75
2018-02-14T17:22:56.369Z,76.94
2018-02-14T17:25:22.224Z,77.19
2018-02-14T17:27:48.111Z,77.38
2018-02-14T17:30:13.957Z,77.54
2018-02-14T17:32:39.848Z,77.82
2018-02-14T17:35:05.693Z,77.96
2018-02-14T17:37:31.533Z,78.07
2018-02-14T17:39:57.424Z,78.26
2018-02-14T17:42:23.276Z,78.50
2018-02-14T17:44:49.161Z,79.19
2018-02-14T17:47:15.014Z,79.70
2018-02-14T17:49:40.873Z,80.03
2018-02-14T17:52:06.800Z,80.46
2018-02-14T17:54:32.643Z,80.71
2018-02-14T17:56:58.563Z,80.88
2018-02-14T17:59:24.462Z,80.98
2018-02-14T18:01:50.300Z,81.07
2018-02-14T18:04:16.139Z,81.30
2018-02-14T18:06:42.064Z,81.49
2018-02-14T18:09:07.905Z,81.65
2018-02-14T18:11:33.865Z,81.86
2018-02-14T18:13:59.754Z,82.04
2018-02-14T18:16:25.701Z,82.20
2018-02-14T18:18:51.549Z,82.43
2018-02-14T18:21:17.442Z,82.71
2018-02-14T18:23:43.292Z,82.96
2018-02-14T18:26:09.160Z,83.42
2018-02-14T18:28:35.040Z,83.86
2018-02-14T18:31:00.962Z,83.96
2018-02-14T18:33:26.805Z,84.06
2018-02-14T18:35:52.636Z,84.23
2018-02-14T18:38:18.549Z,84.48
2018-02-14T18:40:44.389Z,84.65
2018-02-14T18:43:10.229Z,84.79
2018-02-14T18:45:36.124Z,85.03
2018-02-14T18:48:01.981Z,85.15
2018-02-14T18:50:27.828Z,85.23
2018-02-14T18:52:53.754Z,85.21
2018-02-14T18:55:19.605Z,85.28
2018-02-14T18:57:45.451Z,85.35
2018-02-14T19:00:11.452Z,85.38
2018-02-14T19:02:37.311Z,85.68
2018-02-14T19:05:03.169Z,85.92
2018-02-14T19:07:29.052Z,86.13
2018-02-14T19:09:54.901Z,86.32
2018-02-14T19:12:20.757Z,86.42
2018-02-14T19:14:46.632Z,86.46
2018-02-14T19:17:12.487Z,86.45
2018-02-14T19:19:38.472Z,86.54
2018-02-14T19:22:04.322Z,86.54
2018-02-14T19:24:30.170Z,86.49
2018-02-14T19:26:56.439Z,86.62
2018-02-14T19:29:22.288Z,86.72
2018-02-14T19:31:48.129Z,86.81
2018-02-14T19:34:14.021Z,86.77
2018-02-14T19:36:39.865Z,86.82
2018-02-14T19:39:06.087Z,86.88
2018-02-14T19:41:32.045Z,86.83
2018-02-14T19:43:58.004Z,86.93
2018-02-14T19:46:23.860Z,87.18
2018-02-14T19:48:49.741Z,87.31
2018-02-14T19:51:15.815Z,87.44
2018-02-14T19:53:41.757Z,87.44
2018-02-14T19:56:07.843Z,87.60
2018-02-14T19:58:33.679Z,87.62
2018-02-14T20:00:59.946Z,87.50
2018-02-14T20:03:26.308Z,87.58
2018-02-14T20:05:52.189Z,87.53
2018-02-14T20:08:18.029Z,87.68
2018-02-14T20:10:43.895Z,87.85
2018-02-14T20:13:09.756Z,87.96
2018-02-14T20:15:36.184Z,88.54
2018-02-14T20:18:02.025Z,88.72
2018-02-14T20:20:27.909Z,89.07
2018-02-14T20:22:53.748Z,89.35
2018-02-14T20:25:19.692Z,89.54
2018-02-14T20:27:45.889Z,89.64
2018-02-14T20:30:11.766Z,89.69
2018-02-14T20:32:37.658Z,89.62
2018-02-14T20:35:03.535Z,89.49
2018-02-14T20:37:29.384Z,89.33
2018-02-14T20:39:55.581Z,89.14
2018-02-14T20:42:21.469Z,88.95
2018-02-14T20:44:47.317Z,88.77
2018-02-14T20:47:13.221Z,88.55
2018-02-14T20:49:39.511Z,88.36
2018-02-14T20:52:05.364Z,88.12
2018-02-14T20:54:31.235Z,87.99
2018-02-14T20:56:57.125Z,87.84
2018-02-14T20:59:22.976Z,87.71
2018-02-14T21:01:48.928Z,87.52
2018-02-14T21:04:18.607Z,87.43
2018-02-14T21:06:44.472Z,87.34
2018-02-14T21:09:10.410Z,87.13
2018-02-14T21:11:36.303Z,87.02
2018-02-14T21:14:02.221Z,86.92
2018-02-14T21:16:28.089Z,86.80
2018-02-14T21:18:53.968Z,86.67
2018-02-14T21:21:19.901Z,86.54
2018-02-14T21:23:46.252Z,86.43
2018-02-14T21:26:12.128Z,86.23
2018-02-14T21:28:38.040Z,86.17
2018-02-14T21:31:04.245Z,86.10
2018-02-14T21:33:30.180Z,86.10
2018-02-14T21:35:56.036Z,86.13
2018-02-14T21:38:21.899Z,86.13
2018-02-14T21:40:47.887Z,86.07
2018-02-14T21:43:13.773Z,86.06
2018-02-14T21:45:39.644Z,86.06
2018-02-14T21:48:05.561Z,86.01
2018-02-14T21:50:31.513Z,85.94
2018-02-14T21:52:57.520Z,85.89
2018-02-14T21:55:23.409Z,85.80
2018-02-14T21:57:49.289Z,85.71
2018-02-14T22:00:15.277Z,85.71
2018-02-14T22:02:41.152Z,85.68
2018-02-14T22:05:07.107Z,85.67
2018-02-14T22:07:33.011Z,85.60
2018-02-14T22:09:58.892Z,85.63
2018-02-14T22:12:24.829Z,85.60
2018-02-14T22:14:50.700Z,85.55
2018-02-14T22:17:17.393Z,85.62
2018-02-14T22:19:43.307Z,85.59
2018-02-14T22:22:09.173Z,85.61
2018-02-14T22:24:35.050Z,85.59
2018-02-14T22:27:01.068Z,85.65
2018-02-14T22:29:26.941Z,85.60
2018-02-14T22:31:52.812Z,85.56
2018-02-14T22:34:18.753Z,85.59
2018-02-14T22:36:44.620Z,85.59
2018-02-14T22:39:10.529Z,85.58
2018-02-14T22:41:36.401Z,85.58
2018-02-14T22:44:02.325Z,85.72
2018-02-14T22:46:28.193Z,85.70
2018-02-14T22:48:54.087Z,85.58
2018-02-14T22:51:19.960Z,85.45
2018-02-14T22:53:45.884Z,85.26
2018-02-14T22:56:11.752Z,85.31
2018-02-14T22:58:37.640Z,85.56
2018-02-14T23:01:03.556Z,85.54
2018-02-14T23:03:29.469Z,85.64
2018-02-14T23:05:55.369Z,85.74
2018-02-14T23:08:21.237Z,85.83
2018-02-14T23:10:47.156Z,85.75
2018-02-14T23:13:13.036Z,85.73
2018-02-14T23:15:38.960Z,85.60
2018-02-14T23:18:04.834Z,85.49
2018-02-14T23:20:30.708Z,85.47
2018-02-14T23:22:56.628Z,85.41
2018-02-14T23:25:22.492Z,85.36
2018-02-14T23:27:48.364Z,85.38
2018-02-14T23:30:14.300Z,85.26
2018-02-14T23:32:40.169Z,85.28
2018-02-14T23:35:06.032Z,85.38
2018-02-14T23:37:31.949Z,85.46
2018-02-14T23:39:57.810Z,85.50
2018-02-14T23:42:23.681Z,85.42
2018-02-14T23:44:49.696Z,85.36
2018-02-14T23:47:15.567Z,85.43
2018-02-14T23:49:41.434Z,85.46
2018-02-14T23:52:07.337Z,85.36
2018-02-14T23:54:33.248Z,85.33
2018-02-14T23:56:59.173Z,85.30
2018-02-14T23:59:25.039Z,85.29
